AAL1120 KOKC-KABQ
Flight info
| Callsign | AAL1120 |
|---|---|
| Flight time | 1h 29m |
| Altitude | 30000 |
| Route | OLGUY3 YOUSE KIIDD COLTR4 |
| Aircraft | B738/M-SDE2E3FGHIRWXY/LB1 |
Departure
| Time | 2026-04-28 23:44 |
|---|---|
| Airport | OKC Will Rogers World Airport (KOKC) |
Arrival
| Time | 2026-04-29 01:13 |
|---|---|
| Airport | Albuquerque International Sunport (KABQ) |
| Time | Latitude | Longitude | Altitude | Speed | Heading |
|---|---|---|---|---|---|
| 2026-04-28 23:33 | 35.39518 | -97.59383 | 1294 ft | 0 kts | 270° |
| 2026-04-28 23:35 | 35.39518 | -97.59381 | 1293 ft | 0 kts | 271° |
| 2026-04-28 23:36 | 35.39522 | -97.59370 | 1293 ft | 2 kts | 239° |
| 2026-04-28 23:36 | 35.39526 | -97.59357 | 1293 ft | 1 kts | 256° |
| 2026-04-28 23:36 | 35.39526 | -97.59349 | 1293 ft | 0 kts | 314° |
| 2026-04-28 23:36 | 35.39521 | -97.59345 | 1293 ft | 0 kts | 356° |
| 2026-04-28 23:37 | 35.39515 | -97.59346 | 1293 ft | 1 kts | 1° |
| 2026-04-28 23:37 | 35.39514 | -97.59346 | 1293 ft | 0 kts | 0° |
| 2026-04-28 23:38 | 35.39518 | -97.59345 | 1293 ft | 1 kts | 14° |
| 2026-04-28 23:39 | 35.39532 | -97.59332 | 1293 ft | 4 kts | 51° |
| 2026-04-28 23:39 | 35.39539 | -97.59296 | 1293 ft | 5 kts | 116° |
| 2026-04-28 23:39 | 35.39500 | -97.59267 | 1293 ft | 7 kts | 155° |
| 2026-04-28 23:39 | 35.39435 | -97.59227 | 1293 ft | 13 kts | 165° |
| 2026-04-28 23:40 | 35.39321 | -97.59222 | 1293 ft | 19 kts | 180° |
| 2026-04-28 23:40 | 35.39166 | -97.59219 | 1290 ft | 25 kts | 180° |
| 2026-04-28 23:40 | 35.39008 | -97.59213 | 1290 ft | 17 kts | 153° |
| 2026-04-28 23:40 | 35.38961 | -97.59081 | 1291 ft | 16 kts | 133° |
| 2026-04-28 23:41 | 35.38845 | -97.59061 | 1290 ft | 17 kts | 179° |
| 2026-04-28 23:41 | 35.38715 | -97.59060 | 1289 ft | 20 kts | 179° |
| 2026-04-28 23:41 | 35.38566 | -97.59061 | 1289 ft | 22 kts | 180° |
| 2026-04-28 23:41 | 35.38396 | -97.59060 | 1288 ft | 25 kts | 180° |
| 2026-04-28 23:42 | 35.38204 | -97.59060 | 1284 ft | 29 kts | 180° |
| 2026-04-28 23:42 | 35.37989 | -97.59061 | 1281 ft | 31 kts | 180° |
| 2026-04-28 23:42 | 35.37874 | -97.59057 | 1280 ft | 12 kts | 162° |
| 2026-04-28 23:42 | 35.37835 | -97.58978 | 1280 ft | 11 kts | 91° |
| 2026-04-28 23:43 | 35.37873 | -97.58897 | 1281 ft | 11 kts | 14° |
| 2026-04-28 23:43 | 35.37998 | -97.58892 | 1284 ft | 41 kts | 359° |
| 2026-04-28 23:43 | 35.38585 | -97.58894 | 1292 ft | 123 kts | 0° |
| 2026-04-28 23:43 | 35.39646 | -97.58894 | 1520 ft | 170 kts | 360° |
| 2026-04-28 23:44 | 35.40800 | -97.58911 | 2588 ft | 163 kts | 352° |
| 2026-04-28 23:44 | 35.41720 | -97.59487 | 3534 ft | 160 kts | 312° |
| 2026-04-28 23:44 | 35.42203 | -97.60762 | 4148 ft | 176 kts | 290° |
| 2026-04-28 23:44 | 35.42371 | -97.62296 | 4783 ft | 190 kts | 272° |
| 2026-04-28 23:45 | 35.42061 | -97.63914 | 5406 ft | 205 kts | 254° |
| 2026-04-28 23:45 | 35.41608 | -97.65592 | 6072 ft | 212 kts | 260° |
| 2026-04-28 23:45 | 35.41345 | -97.67423 | 6645 ft | 228 kts | 265° |
| 2026-04-28 23:45 | 35.41179 | -97.69379 | 7446 ft | 236 kts | 266° |
| 2026-04-28 23:46 | 35.41015 | -97.71389 | 8182 ft | 247 kts | 265° |
| 2026-04-28 23:46 | 35.40827 | -97.73492 | 9145 ft | 249 kts | 264° |
| 2026-04-28 23:46 | 35.40632 | -97.75562 | 10080 ft | 250 kts | 263° |
| 2026-04-28 23:46 | 35.40429 | -97.77689 | 10790 ft | 260 kts | 264° |
| 2026-04-28 23:47 | 35.40214 | -97.79954 | 11311 ft | 276 kts | 263° |
| 2026-04-28 23:47 | 35.39988 | -97.82342 | 11825 ft | 291 kts | 263° |
| 2026-04-28 23:47 | 35.39749 | -97.84868 | 12321 ft | 307 kts | 263° |
| 2026-04-28 23:47 | 35.39501 | -97.87479 | 13021 ft | 313 kts | 263° |
| 2026-04-28 23:48 | 35.39246 | -97.90154 | 13757 ft | 319 kts | 263° |
| 2026-04-28 23:48 | 35.38990 | -97.92836 | 14610 ft | 321 kts | 263° |
| 2026-04-28 23:48 | 35.38732 | -97.95533 | 15465 ft | 322 kts | 263° |
| 2026-04-28 23:48 | 35.38471 | -97.98264 | 16225 ft | 326 kts | 263° |
| 2026-04-28 23:49 | 35.38209 | -98.01000 | 17058 ft | 326 kts | 263° |
| 2026-04-28 23:49 | 35.37945 | -98.03752 | 17869 ft | 327 kts | 263° |
| 2026-04-28 23:49 | 35.37680 | -98.06497 | 18561 ft | 331 kts | 263° |
| 2026-04-28 23:49 | 35.37409 | -98.09309 | 19370 ft | 332 kts | 264° |
| 2026-04-28 23:50 | 35.37143 | -98.12108 | 20076 ft | 334 kts | 264° |
| 2026-04-28 23:50 | 35.36971 | -98.14920 | 20748 ft | 337 kts | 268° |
| 2026-04-28 23:50 | 35.36959 | -98.17783 | 21471 ft | 338 kts | 270° |
| 2026-04-28 23:50 | 35.37019 | -98.20647 | 22103 ft | 340 kts | 271° |
| 2026-04-28 23:51 | 35.37101 | -98.23570 | 22680 ft | 344 kts | 271° |
| 2026-04-28 23:51 | 35.37182 | -98.26499 | 23301 ft | 347 kts | 271° |
| 2026-04-28 23:51 | 35.37256 | -98.29420 | 23877 ft | 349 kts | 271° |
| 2026-04-28 23:51 | 35.37324 | -98.32420 | 24459 ft | 352 kts | 271° |
| 2026-04-28 23:52 | 35.37385 | -98.35397 | 25028 ft | 354 kts | 271° |
| 2026-04-28 23:52 | 35.37444 | -98.38410 | 25601 ft | 356 kts | 271° |
| 2026-04-28 23:52 | 35.37500 | -98.41435 | 26080 ft | 360 kts | 271° |
| 2026-04-28 23:52 | 35.37553 | -98.44491 | 26650 ft | 361 kts | 271° |
| 2026-04-28 23:53 | 35.37604 | -98.47551 | 27472 ft | 356 kts | 271° |
| 2026-04-28 23:53 | 35.37653 | -98.50523 | 28180 ft | 352 kts | 271° |
| 2026-04-28 23:53 | 35.37700 | -98.53497 | 28789 ft | 351 kts | 271° |
| 2026-04-28 23:53 | 35.37746 | -98.56477 | 29378 ft | 349 kts | 271° |
| 2026-04-28 23:54 | 35.37791 | -98.59419 | 29896 ft | 348 kts | 271° |
| 2026-04-28 23:54 | 35.37836 | -98.62399 | 29993 ft | 350 kts | 271° |
| 2026-04-28 23:54 | 35.37922 | -98.68323 | 29991 ft | 347 kts | 270° |
| 2026-04-28 23:55 | 35.38006 | -98.74219 | 29995 ft | 346 kts | 271° |
| 2026-04-28 23:55 | 35.38088 | -98.80108 | 29989 ft | 347 kts | 270° |
| 2026-04-28 23:56 | 35.38168 | -98.86031 | 29986 ft | 347 kts | 270° |
| 2026-04-28 23:56 | 35.38244 | -98.91912 | 29985 ft | 348 kts | 270° |
| 2026-04-28 23:57 | 35.38316 | -98.97813 | 29985 ft | 347 kts | 270° |
| 2026-04-28 23:57 | 35.38387 | -99.03725 | 29986 ft | 347 kts | 270° |
| 2026-04-28 23:58 | 35.38455 | -99.09608 | 29990 ft | 345 kts | 270° |
| 2026-04-28 23:58 | 35.38519 | -99.15488 | 29982 ft | 347 kts | 270° |
| 2026-04-28 23:59 | 35.38515 | -99.21336 | 29984 ft | 344 kts | 269° |
| 2026-04-28 23:59 | 35.38360 | -99.27221 | 29986 ft | 346 kts | 269° |
| 2026-04-29 00:00 | 35.38196 | -99.33109 | 29982 ft | 344 kts | 269° |
| 2026-04-29 00:00 | 35.38045 | -99.38959 | 29983 ft | 346 kts | 268° |
| 2026-04-29 00:01 | 35.37898 | -99.44840 | 29982 ft | 346 kts | 268° |
| 2026-04-29 00:01 | 35.37752 | -99.50671 | 29980 ft | 345 kts | 269° |
| 2026-04-29 00:02 | 35.37605 | -99.56524 | 29983 ft | 343 kts | 268° |
| 2026-04-29 00:02 | 35.37456 | -99.62366 | 29994 ft | 342 kts | 268° |
| 2026-04-29 00:03 | 35.37300 | -99.68182 | 30004 ft | 341 kts | 268° |
| 2026-04-29 00:03 | 35.37143 | -99.73979 | 30007 ft | 341 kts | 268° |
| 2026-04-29 00:04 | 35.36985 | -99.79771 | 30008 ft | 339 kts | 268° |
| 2026-04-29 00:04 | 35.36827 | -99.85542 | 30009 ft | 341 kts | 268° |
| 2026-04-29 00:05 | 35.36662 | -99.91331 | 30007 ft | 340 kts | 268° |
| 2026-04-29 00:05 | 35.36498 | -99.97100 | 30010 ft | 339 kts | 269° |
| 2026-04-29 00:06 | 35.36330 | -100.02869 | 30005 ft | 339 kts | 268° |
| 2026-04-29 00:06 | 35.36156 | -100.08672 | 30002 ft | 341 kts | 268° |
| 2026-04-29 00:07 | 35.35982 | -100.14429 | 29993 ft | 340 kts | 268° |
| 2026-04-29 00:07 | 35.35802 | -100.20229 | 29990 ft | 342 kts | 268° |
| 2026-04-29 00:08 | 35.35624 | -100.26008 | 29980 ft | 339 kts | 268° |
| 2026-04-29 00:08 | 35.35441 | -100.31789 | 29992 ft | 340 kts | 268° |
| 2026-04-29 00:09 | 35.35257 | -100.37545 | 29984 ft | 340 kts | 268° |
| 2026-04-29 00:09 | 35.35068 | -100.43338 | 29986 ft | 341 kts | 268° |
| 2026-04-29 00:10 | 35.34878 | -100.49139 | 29990 ft | 340 kts | 268° |
| 2026-04-29 00:10 | 35.34684 | -100.54904 | 29997 ft | 341 kts | 268° |
| 2026-04-29 00:11 | 35.34488 | -100.60659 | 29998 ft | 339 kts | 268° |
| 2026-04-29 00:12 | 35.34187 | -100.69321 | 30004 ft | 340 kts | 267° |
| 2026-04-29 00:12 | 35.33983 | -100.75103 | 30007 ft | 339 kts | 267° |
| 2026-04-29 00:13 | 35.33777 | -100.80888 | 30008 ft | 339 kts | 267° |
| 2026-04-29 00:13 | 35.33569 | -100.86659 | 30010 ft | 341 kts | 267° |
| 2026-04-29 00:14 | 35.33357 | -100.92436 | 30009 ft | 340 kts | 267° |
| 2026-04-29 00:14 | 35.33144 | -100.98201 | 30010 ft | 340 kts | 268° |
| 2026-04-29 00:15 | 35.32929 | -101.03927 | 30013 ft | 339 kts | 267° |
| 2026-04-29 00:15 | 35.32710 | -101.09693 | 30016 ft | 338 kts | 267° |
| 2026-04-29 00:16 | 35.32487 | -101.15471 | 30020 ft | 341 kts | 267° |
| 2026-04-29 00:16 | 35.32264 | -101.21210 | 30020 ft | 339 kts | 266° |
| 2026-04-29 00:17 | 35.32037 | -101.26955 | 30013 ft | 338 kts | 266° |
| 2026-04-29 00:17 | 35.31807 | -101.32675 | 30008 ft | 338 kts | 267° |
| 2026-04-29 00:18 | 35.31573 | -101.38417 | 30019 ft | 336 kts | 266° |
| 2026-04-29 00:18 | 35.31341 | -101.44118 | 30019 ft | 338 kts | 266° |
| 2026-04-29 00:19 | 35.31106 | -101.49830 | 30013 ft | 335 kts | 267° |
| 2026-04-29 00:19 | 35.30867 | -101.55529 | 30023 ft | 337 kts | 267° |
| 2026-04-29 00:20 | 35.30626 | -101.61232 | 30017 ft | 335 kts | 266° |
| 2026-04-29 00:20 | 35.30381 | -101.66923 | 30019 ft | 335 kts | 266° |
| 2026-04-29 00:21 | 35.30136 | -101.72610 | 30027 ft | 336 kts | 266° |
| 2026-04-29 00:21 | 35.29889 | -101.78256 | 30020 ft | 333 kts | 266° |
| 2026-04-29 00:22 | 35.29638 | -101.83942 | 30022 ft | 333 kts | 266° |
| 2026-04-29 00:22 | 35.29387 | -101.89552 | 30027 ft | 332 kts | 266° |
| 2026-04-29 00:23 | 35.29131 | -101.95207 | 30034 ft | 331 kts | 266° |
| 2026-04-29 00:23 | 35.28875 | -102.00831 | 30040 ft | 332 kts | 266° |
| 2026-04-29 00:24 | 35.28614 | -102.06464 | 30039 ft | 333 kts | 266° |
| 2026-04-29 00:24 | 35.28352 | -102.12098 | 30045 ft | 334 kts | 265° |
| 2026-04-29 00:25 | 35.28088 | -102.17741 | 30054 ft | 332 kts | 265° |
| 2026-04-29 00:25 | 35.27820 | -102.23391 | 30056 ft | 334 kts | 266° |
| 2026-04-29 00:26 | 35.27551 | -102.29047 | 30063 ft | 334 kts | 266° |
| 2026-04-29 00:26 | 35.27274 | -102.34732 | 30065 ft | 336 kts | 266° |
| 2026-04-29 00:27 | 35.26999 | -102.40364 | 30064 ft | 335 kts | 266° |
| 2026-04-29 00:27 | 35.26721 | -102.46027 | 30062 ft | 335 kts | 266° |
| 2026-04-29 00:28 | 35.26437 | -102.51689 | 30065 ft | 334 kts | 266° |
| 2026-04-29 00:28 | 35.26150 | -102.57353 | 30061 ft | 336 kts | 266° |
| 2026-04-29 00:29 | 35.25861 | -102.63030 | 30063 ft | 335 kts | 266° |
| 2026-04-29 00:29 | 35.25571 | -102.68719 | 30068 ft | 334 kts | 266° |
| 2026-04-29 00:30 | 35.25280 | -102.74403 | 30067 ft | 335 kts | 265° |
| 2026-04-29 00:30 | 35.24985 | -102.80081 | 30066 ft | 334 kts | 265° |
| 2026-04-29 00:31 | 35.24686 | -102.85756 | 30065 ft | 337 kts | 266° |
| 2026-04-29 00:31 | 35.24386 | -102.91421 | 30060 ft | 334 kts | 266° |
| 2026-04-29 00:32 | 35.24082 | -102.97099 | 30063 ft | 336 kts | 265° |
| 2026-04-29 00:32 | 35.23772 | -103.02776 | 30060 ft | 336 kts | 265° |
| 2026-04-29 00:33 | 35.23459 | -103.08522 | 30057 ft | 337 kts | 265° |
| 2026-04-29 00:33 | 35.23147 | -103.14208 | 30067 ft | 338 kts | 265° |
| 2026-04-29 00:34 | 35.22831 | -103.19905 | 30069 ft | 336 kts | 265° |
| 2026-04-29 00:34 | 35.22510 | -103.25626 | 30069 ft | 337 kts | 265° |
| 2026-04-29 00:35 | 35.22183 | -103.31383 | 30077 ft | 340 kts | 266° |
| 2026-04-29 00:35 | 35.21860 | -103.37093 | 30073 ft | 336 kts | 265° |
| 2026-04-29 00:36 | 35.21531 | -103.42803 | 30064 ft | 337 kts | 266° |
| 2026-04-29 00:36 | 35.21202 | -103.48553 | 30063 ft | 341 kts | 265° |
| 2026-04-29 00:37 | 35.20867 | -103.54292 | 30050 ft | 339 kts | 266° |
| 2026-04-29 00:37 | 35.20531 | -103.60010 | 30042 ft | 338 kts | 265° |
| 2026-04-29 00:38 | 35.20190 | -103.65723 | 30039 ft | 339 kts | 265° |
| 2026-04-29 00:38 | 35.19846 | -103.71500 | 30042 ft | 340 kts | 265° |
| 2026-04-29 00:39 | 35.19499 | -103.77251 | 30054 ft | 339 kts | 264° |
| 2026-04-29 00:39 | 35.19151 | -103.82986 | 30078 ft | 339 kts | 265° |
| 2026-04-29 00:40 | 35.18800 | -103.88744 | 30097 ft | 340 kts | 265° |
| 2026-04-29 00:40 | 35.18444 | -103.94481 | 30114 ft | 339 kts | 265° |
| 2026-04-29 00:41 | 35.18086 | -104.00231 | 30120 ft | 342 kts | 265° |
| 2026-04-29 00:41 | 35.17725 | -104.06003 | 30120 ft | 341 kts | 265° |
| 2026-04-29 00:42 | 35.17363 | -104.11762 | 30120 ft | 341 kts | 265° |
| 2026-04-29 00:42 | 35.17000 | -104.17503 | 30123 ft | 340 kts | 265° |
| 2026-04-29 00:43 | 35.16631 | -104.23230 | 30128 ft | 340 kts | 265° |
| 2026-04-29 00:43 | 35.16259 | -104.28993 | 30132 ft | 340 kts | 265° |
| 2026-04-29 00:44 | 35.15889 | -104.34699 | 30132 ft | 340 kts | 265° |
| 2026-04-29 00:44 | 35.15508 | -104.40491 | 30134 ft | 342 kts | 265° |
| 2026-04-29 00:45 | 35.15126 | -104.46252 | 30134 ft | 342 kts | 264° |
| 2026-04-29 00:45 | 35.14744 | -104.51985 | 30124 ft | 340 kts | 265° |
| 2026-04-29 00:46 | 35.14356 | -104.57801 | 30131 ft | 343 kts | 265° |
| 2026-04-29 00:46 | 35.13974 | -104.63514 | 30138 ft | 339 kts | 265° |
| 2026-04-29 00:47 | 35.13584 | -104.69238 | 30131 ft | 340 kts | 264° |
| 2026-04-29 00:47 | 35.13191 | -104.74979 | 30142 ft | 342 kts | 264° |
| 2026-04-29 00:48 | 35.12796 | -104.80708 | 30147 ft | 340 kts | 264° |
| 2026-04-29 00:48 | 35.12397 | -104.86474 | 30153 ft | 342 kts | 265° |
| 2026-04-29 00:49 | 35.11998 | -104.92218 | 30157 ft | 341 kts | 265° |
| 2026-04-29 00:49 | 35.11594 | -104.97978 | 29806 ft | 334 kts | 264° |
| 2026-04-29 00:49 | 35.11400 | -105.00738 | 29537 ft | 325 kts | 264° |
| 2026-04-29 00:50 | 35.11216 | -105.03432 | 29172 ft | 319 kts | 265° |
| 2026-04-29 00:50 | 35.10960 | -105.06116 | 28798 ft | 312 kts | 260° |
| 2026-04-29 00:50 | 35.10568 | -105.08685 | 28442 ft | 306 kts | 258° |
| 2026-04-29 00:50 | 35.10131 | -105.11212 | 28094 ft | 312 kts | 258° |
| 2026-04-29 00:51 | 35.09674 | -105.13861 | 27702 ft | 328 kts | 259° |
| 2026-04-29 00:51 | 35.09224 | -105.16568 | 27294 ft | 326 kts | 259° |
| 2026-04-29 00:51 | 35.08786 | -105.19269 | 26903 ft | 320 kts | 259° |
| 2026-04-29 00:51 | 35.08368 | -105.21883 | 26523 ft | 313 kts | 259° |
| 2026-04-29 00:52 | 35.07959 | -105.24468 | 26155 ft | 307 kts | 259° |
| 2026-04-29 00:52 | 35.07561 | -105.26990 | 25792 ft | 301 kts | 259° |
| 2026-04-29 00:52 | 35.07171 | -105.29460 | 25419 ft | 295 kts | 259° |
| 2026-04-29 00:52 | 35.06780 | -105.31939 | 25062 ft | 308 kts | 259° |
| 2026-04-29 00:53 | 35.06364 | -105.34572 | 24664 ft | 318 kts | 259° |
| 2026-04-29 00:53 | 35.05949 | -105.37196 | 24249 ft | 315 kts | 260° |
| 2026-04-29 00:53 | 35.05536 | -105.39803 | 23861 ft | 308 kts | 259° |
| 2026-04-29 00:53 | 35.05135 | -105.42315 | 23493 ft | 302 kts | 259° |
| 2026-04-29 00:54 | 35.04741 | -105.44781 | 23122 ft | 295 kts | 260° |
| 2026-04-29 00:54 | 35.04351 | -105.47222 | 22753 ft | 289 kts | 260° |
| 2026-04-29 00:54 | 35.03974 | -105.49589 | 22396 ft | 284 kts | 259° |
| 2026-04-29 00:54 | 35.03594 | -105.51976 | 22041 ft | 298 kts | 259° |
| 2026-04-29 00:55 | 35.03193 | -105.54488 | 21647 ft | 305 kts | 259° |
| 2026-04-29 00:55 | 35.02790 | -105.57008 | 21267 ft | 299 kts | 259° |
| 2026-04-29 00:55 | 35.02390 | -105.59490 | 20880 ft | 294 kts | 259° |
| 2026-04-29 00:55 | 35.01997 | -105.61935 | 20505 ft | 297 kts | 259° |
| 2026-04-29 00:56 | 35.01600 | -105.64402 | 20119 ft | 300 kts | 259° |
| 2026-04-29 00:56 | 35.01204 | -105.66856 | 19721 ft | 295 kts | 259° |
| 2026-04-29 00:56 | 35.00805 | -105.69338 | 19335 ft | 297 kts | 259° |
| 2026-04-29 00:56 | 35.00407 | -105.71808 | 18952 ft | 297 kts | 258° |
| 2026-04-29 00:57 | 35.00013 | -105.74249 | 18567 ft | 294 kts | 258° |
| 2026-04-29 00:57 | 34.99623 | -105.76678 | 18190 ft | 298 kts | 258° |
| 2026-04-29 00:57 | 34.99220 | -105.79156 | 17732 ft | 298 kts | 258° |
| 2026-04-29 00:57 | 34.98820 | -105.81607 | 17324 ft | 294 kts | 258° |
| 2026-04-29 00:58 | 34.98421 | -105.84058 | 16929 ft | 292 kts | 258° |
| 2026-04-29 00:58 | 34.98031 | -105.86449 | 16543 ft | 289 kts | 258° |
| 2026-04-29 00:58 | 34.97641 | -105.88840 | 16153 ft | 288 kts | 257° |
| 2026-04-29 00:58 | 34.97253 | -105.91219 | 15752 ft | 286 kts | 257° |
| 2026-04-29 00:59 | 34.96864 | -105.93589 | 15392 ft | 292 kts | 257° |
| 2026-04-29 00:59 | 34.96461 | -105.96049 | 14984 ft | 299 kts | 257° |
| 2026-04-29 00:59 | 34.96061 | -105.98489 | 14585 ft | 295 kts | 257° |
| 2026-04-29 00:59 | 34.95721 | -106.00949 | 14222 ft | 291 kts | 261° |
| 2026-04-29 01:00 | 34.95588 | -106.03383 | 13899 ft | 288 kts | 266° |
| 2026-04-29 01:00 | 34.95599 | -106.05841 | 13504 ft | 293 kts | 269° |
| 2026-04-29 01:00 | 34.95655 | -106.08326 | 13107 ft | 299 kts | 269° |
| 2026-04-29 01:00 | 34.95710 | -106.10849 | 12703 ft | 297 kts | 269° |
| 2026-04-29 01:01 | 34.95752 | -106.13329 | 12308 ft | 294 kts | 269° |
| 2026-04-29 01:01 | 34.95782 | -106.15814 | 11912 ft | 291 kts | 269° |
| 2026-04-29 01:01 | 34.95807 | -106.18275 | 11525 ft | 290 kts | 269° |
| 2026-04-29 01:01 | 34.95829 | -106.20709 | 11215 ft | 285 kts | 269° |
| 2026-04-29 01:02 | 34.95757 | -106.23060 | 11178 ft | 275 kts | 265° |
| 2026-04-29 01:02 | 34.95565 | -106.25380 | 11135 ft | 273 kts | 262° |
| 2026-04-29 01:02 | 34.95327 | -106.27651 | 10887 ft | 268 kts | 262° |
| 2026-04-29 01:02 | 34.95095 | -106.29865 | 10605 ft | 263 kts | 263° |
| 2026-04-29 01:03 | 34.94882 | -106.32027 | 10467 ft | 252 kts | 263° |
| 2026-04-29 01:03 | 34.94686 | -106.34108 | 10382 ft | 239 kts | 263° |
| 2026-04-29 01:03 | 34.94506 | -106.36034 | 10317 ft | 224 kts | 263° |
| 2026-04-29 01:03 | 34.94347 | -106.37896 | 10245 ft | 221 kts | 266° |
| 2026-04-29 01:04 | 34.94501 | -106.39764 | 10098 ft | 221 kts | 287° |
| 2026-04-29 01:04 | 34.95250 | -106.41321 | 9967 ft | 207 kts | 304° |
| 2026-04-29 01:04 | 34.96077 | -106.42628 | 9893 ft | 179 kts | 302° |
| 2026-04-29 01:04 | 34.96757 | -106.43809 | 9549 ft | 165 kts | 300° |
| 2026-04-29 01:05 | 34.97352 | -106.44941 | 9185 ft | 153 kts | 298° |
| 2026-04-29 01:05 | 34.97912 | -106.46002 | 8995 ft | 142 kts | 298° |
| 2026-04-29 01:05 | 34.98444 | -106.47006 | 8753 ft | 142 kts | 299° |
| 2026-04-29 01:05 | 34.98970 | -106.48000 | 8479 ft | 142 kts | 299° |
| 2026-04-29 01:06 | 34.99535 | -106.49074 | 8830 ft | 145 kts | 299° |
| 2026-04-29 01:06 | 35.00009 | -106.49905 | 9330 ft | 116 kts | 300° |
| 2026-04-29 01:06 | 35.00332 | -106.50868 | 8652 ft | 140 kts | 275° |
| 2026-04-29 01:06 | 35.00225 | -106.52042 | 8241 ft | 139 kts | 252° |
| 2026-04-29 01:07 | 34.99741 | -106.53183 | 8066 ft | 168 kts | 243° |
| 2026-04-29 01:07 | 34.99059 | -106.54421 | 8166 ft | 186 kts | 238° |
| 2026-04-29 01:07 | 34.98289 | -106.55613 | 8199 ft | 175 kts | 234° |
| 2026-04-29 01:07 | 34.97509 | -106.56647 | 8406 ft | 152 kts | 230° |
| 2026-04-29 01:08 | 34.96794 | -106.57443 | 8603 ft | 135 kts | 228° |
| 2026-04-29 01:08 | 34.96025 | -106.58240 | 8216 ft | 156 kts | 227° |
| 2026-04-29 01:08 | 34.95106 | -106.59029 | 8087 ft | 170 kts | 212° |
| 2026-04-29 01:08 | 34.93869 | -106.59145 | 8083 ft | 193 kts | 169° |
| 2026-04-29 01:09 | 34.92829 | -106.58079 | 8082 ft | 205 kts | 121° |
| 2026-04-29 01:09 | 34.92689 | -106.56418 | 8069 ft | 192 kts | 70° |
| 2026-04-29 01:09 | 34.93488 | -106.55297 | 8046 ft | 172 kts | 15° |
| 2026-04-29 01:09 | 34.94648 | -106.54967 | 8110 ft | 175 kts | 7° |
| 2026-04-29 01:10 | 34.95799 | -106.54418 | 8087 ft | 176 kts | 21° |
| 2026-04-29 01:10 | 34.96842 | -106.53707 | 8093 ft | 172 kts | 23° |
| 2026-04-29 01:10 | 34.97908 | -106.53017 | 8096 ft | 170 kts | 20° |
| 2026-04-29 01:10 | 34.98949 | -106.52347 | 8063 ft | 171 kts | 23° |
| 2026-04-29 01:11 | 34.99997 | -106.51585 | 7880 ft | 177 kts | 23° |
| 2026-04-29 01:11 | 35.01109 | -106.51032 | 7775 ft | 169 kts | 6° |
| 2026-04-29 01:11 | 35.02224 | -106.51031 | 7429 ft | 157 kts | 333° |
| 2026-04-29 01:11 | 35.02953 | -106.51853 | 6935 ft | 146 kts | 303° |
| 2026-04-29 01:12 | 35.03610 | -106.52876 | 6468 ft | 175 kts | 306° |
| 2026-04-29 01:12 | 35.04302 | -106.54172 | 6376 ft | 174 kts | 279° |
| 2026-04-29 01:12 | 35.04398 | -106.55593 | 5893 ft | 167 kts | 273° |
| 2026-04-29 01:12 | 35.04393 | -106.56960 | 5514 ft | 155 kts | 273° |
| 2026-04-29 01:13 | 35.04407 | -106.58180 | 5367 ft | 132 kts | 272° |
| 2026-04-29 01:13 | 35.04412 | -106.58985 | 5355 ft | 57 kts | 273° |
| 2026-04-29 01:13 | 35.04419 | -106.59279 | 5353 ft | 24 kts | 270° |
| 2026-04-29 01:13 | 35.04420 | -106.59506 | 5350 ft | 26 kts | 269° |
| 2026-04-29 01:14 | 35.04450 | -106.59720 | 5350 ft | 24 kts | 289° |
| 2026-04-29 01:14 | 35.04528 | -106.59902 | 5348 ft | 24 kts | 301° |
| 2026-04-29 01:14 | 35.04574 | -106.60096 | 5346 ft | 24 kts | 271° |
| 2026-04-29 01:14 | 35.04575 | -106.60307 | 5346 ft | 25 kts | 271° |
| 2026-04-29 01:15 | 35.04577 | -106.60535 | 5345 ft | 29 kts | 271° |
| 2026-04-29 01:15 | 35.04578 | -106.60803 | 5343 ft | 31 kts | 270° |
| 2026-04-29 01:15 | 35.04580 | -106.61044 | 5342 ft | 16 kts | 270° |
| 2026-04-29 01:15 | 35.04596 | -106.61165 | 5341 ft | 14 kts | 318° |
| 2026-04-29 01:16 | 35.04660 | -106.61244 | 5341 ft | 13 kts | 276° |
| 2026-04-29 01:16 | 35.04633 | -106.61351 | 5340 ft | 13 kts | 240° |
| 2026-04-29 01:16 | 35.04623 | -106.61434 | 5338 ft | 0 kts | 303° |
| 2026-04-29 01:16 | 35.04624 | -106.61436 | 5338 ft | 0 kts | 324° |
| 2026-04-29 01:17 | 35.04628 | -106.61435 | 5338 ft | 0 kts | 7° |
| 2026-04-29 01:17 | 35.04645 | -106.61433 | 5339 ft | 3 kts | 3° |
| 2026-04-29 01:17 | 35.04664 | -106.61437 | 5339 ft | 1 kts | 345° |
| 2026-04-29 01:17 | 35.04676 | -106.61441 | 5339 ft | 2 kts | 344° |
| 2026-04-29 01:18 | 35.04688 | -106.61446 | 5339 ft | 1 kts | 343° |
| 2026-04-29 01:18 | 35.04693 | -106.61447 | 5339 ft | 0 kts | 343° |